createdAt,value
2019-01-13T00:00:42.440Z,118.33
2019-01-13T00:03:11.074Z,130.87
2019-01-13T00:05:39.581Z,147.57
2019-01-13T00:08:08.255Z,116.67
2019-01-13T00:10:36.903Z,98.70
2019-01-13T00:13:05.542Z,106.37
2019-01-13T00:15:34.328Z,112.00
2019-01-13T00:18:02.909Z,146.77
2019-01-13T00:20:31.526Z,160.87
2019-01-13T00:23:00.210Z,163.33
2019-01-13T00:25:28.966Z,167.60
2019-01-13T00:27:57.603Z,163.07
2019-01-13T00:30:26.285Z,168.23
2019-01-13T00:32:54.916Z,153.23
2019-01-13T00:35:23.550Z,117.60
2019-01-13T00:37:53.090Z,88.43
2019-01-13T00:40:21.720Z,92.30
2019-01-13T00:42:50.293Z,95.23
2019-01-13T00:45:18.910Z,96.43
2019-01-13T00:47:47.475Z,105.47
2019-01-13T00:50:16.418Z,93.03
2019-01-13T00:52:45.112Z,106.57
2019-01-13T00:55:15.152Z,106.93
2019-01-13T00:57:43.791Z,104.77
2019-01-13T01:00:26.705Z,116.97
2019-01-13T01:02:53.993Z,108.53
2019-01-13T01:05:22.553Z,81.07
2019-01-13T01:07:51.750Z,64.03
2019-01-13T01:10:20.614Z,71.17
2019-01-13T01:12:49.180Z,105.93
2019-01-13T01:15:17.797Z,110.27
2019-01-13T01:17:46.436Z,101.53
2019-01-13T01:20:16.219Z,86.70
2019-01-13T01:22:44.810Z,63.30
2019-01-13T01:25:15.474Z,72.90
2019-01-13T01:27:44.040Z,53.43
2019-01-13T01:30:15.312Z,39.33
2019-01-13T01:32:43.955Z,37.77
2019-01-13T01:35:12.513Z,26.70
2019-01-13T01:37:41.139Z,39.57
2019-01-13T01:40:15.765Z,40.20
2019-01-13T01:42:44.394Z,37.23
2019-01-13T01:45:14.055Z,60.67
2019-01-13T01:47:42.689Z,92.10
2019-01-13T01:50:12.698Z,80.70
2019-01-13T01:52:41.181Z,88.53
2019-01-13T01:55:12.127Z,73.13
2019-01-13T01:57:40.725Z,79.27
2019-01-13T02:00:14.938Z,50.33
2019-01-13T02:02:43.425Z,77.30
2019-01-13T02:05:12.035Z,104.50
2019-01-13T02:07:40.602Z,117.90
2019-01-13T02:10:19.680Z,103.63
2019-01-13T02:12:48.251Z,98.17
2019-01-13T02:15:19.648Z,113.07
2019-01-13T02:17:48.263Z,120.57
2019-01-13T02:20:18.331Z,107.57
2019-01-13T02:22:46.964Z,128.13
2019-01-13T02:25:17.877Z,131.00
2019-01-13T02:27:46.518Z,112.73
2019-01-13T02:30:20.524Z,104.13
2019-01-13T02:32:49.133Z,129.93
2019-01-13T02:35:17.628Z,116.10
2019-01-13T02:37:46.200Z,100.40
2019-01-13T02:40:16.882Z,109.37
2019-01-13T02:42:45.874Z,88.43
2019-01-13T02:45:19.561Z,65.27
2019-01-13T02:47:48.247Z,79.43
2019-01-13T02:50:16.898Z,68.73
2019-01-13T02:52:45.387Z,56.47
2019-01-13T02:55:13.917Z,85.50
2019-01-13T02:57:42.407Z,97.73
2019-01-13T03:00:22.637Z,79.70
2019-01-13T03:02:51.284Z,162.57
2019-01-13T03:05:19.525Z,130.30
2019-01-13T03:07:48.132Z,156.63
2019-01-13T03:10:18.727Z,291.80
2019-01-13T03:12:47.270Z,10.57
2019-01-13T03:15:20.389Z,5.03
2019-01-13T03:17:49.150Z,5.27
2019-01-13T03:20:17.832Z,3.47
2019-01-13T03:22:46.383Z,173.20
2019-01-13T03:25:16.825Z,157.00
2019-01-13T03:27:45.460Z,163.23
2019-01-13T03:30:16.646Z,158.23
2019-01-13T03:32:45.142Z,162.13
2019-01-13T03:35:14.005Z,169.23
2019-01-13T03:37:42.620Z,158.90
2019-01-13T03:40:14.331Z,162.47
2019-01-13T03:42:42.900Z,159.07
2019-01-13T03:45:11.584Z,164.27
2019-01-13T03:47:40.210Z,161.20
2019-01-13T03:50:14.727Z,159.60
2019-01-13T03:52:43.772Z,158.83
2019-01-13T03:55:12.509Z,163.27
2019-01-13T03:57:41.089Z,158.97
2019-01-13T04:00:23.702Z,163.00
2019-01-13T04:02:52.276Z,160.50
2019-01-13T04:05:20.844Z,159.57
2019-01-13T04:07:49.451Z,153.40
2019-01-13T04:10:18.231Z,155.83
2019-01-13T04:12:46.798Z,154.00
2019-01-13T04:15:18.527Z,152.63
2019-01-13T04:17:47.092Z,160.60
2019-01-13T04:20:15.670Z,154.30
2019-01-13T04:22:44.682Z,158.37
2019-01-13T04:25:13.258Z,154.53
2019-01-13T04:27:41.824Z,154.73
2019-01-13T04:30:12.592Z,153.53
2019-01-13T04:32:41.160Z,157.97
2019-01-13T04:35:09.742Z,153.80
2019-01-13T04:37:38.422Z,160.43
2019-01-13T04:40:11.385Z,154.53
2019-01-13T04:42:39.956Z,156.10
2019-01-13T04:45:09.764Z,151.93
2019-01-13T04:47:38.328Z,158.40
2019-01-13T04:50:14.687Z,155.60
2019-01-13T04:52:43.174Z,148.10
2019-01-13T04:55:11.773Z,138.73
2019-01-13T04:57:40.376Z,133.40
2019-01-13T05:00:19.852Z,149.63
2019-01-13T05:02:48.460Z,149.97
2019-01-13T05:05:17.024Z,136.23
2019-01-13T05:07:45.518Z,152.50
2019-01-13T05:10:21.301Z,150.30
2019-01-13T05:12:50.293Z,138.93
2019-01-13T05:15:18.879Z,142.90
2019-01-13T05:17:47.489Z,151.60
2019-01-13T05:20:17.861Z,118.93
2019-01-13T05:22:46.428Z,127.90
2019-01-13T05:25:15.037Z,111.97
2019-01-13T05:27:43.527Z,109.57
2019-01-13T05:30:14.602Z,160.40
2019-01-13T05:32:43.201Z,137.70
2019-01-13T05:35:11.778Z,149.87
2019-01-13T05:37:40.286Z,151.00
2019-01-13T05:40:11.959Z,137.23
2019-01-13T05:42:40.460Z,152.13
2019-01-13T05:45:11.404Z,136.90
2019-01-13T05:47:40.075Z,135.83
2019-01-13T05:50:11.059Z,134.80
2019-01-13T05:52:40.691Z,101.53
2019-01-13T05:55:09.308Z,116.63
2019-01-13T05:57:37.805Z,140.70
2019-01-13T06:00:20.893Z,157.73
2019-01-13T06:02:49.873Z,168.63
2019-01-13T06:05:18.515Z,166.70
2019-01-13T06:07:47.134Z,163.40
2019-01-13T06:10:18.818Z,164.53
2019-01-13T06:12:47.388Z,154.73
2019-01-13T06:15:19.730Z,143.80
2019-01-13T06:17:48.239Z,141.17
2019-01-13T06:20:18.701Z,143.73
2019-01-13T06:22:47.723Z,131.43
2019-01-13T06:25:16.296Z,149.57
2019-01-13T06:27:44.803Z,151.83
2019-01-13T06:30:15.794Z,143.73
2019-01-13T06:32:44.368Z,165.83
2019-01-13T06:35:12.939Z,166.27
2019-01-13T06:37:41.475Z,147.03
2019-01-13T06:40:15.404Z,144.43
2019-01-13T06:42:44.082Z,153.53
2019-01-13T06:45:22.795Z,137.67
2019-01-13T06:47:51.405Z,142.47
2019-01-13T06:50:19.971Z,152.27
2019-01-13T06:52:48.533Z,148.67
2019-01-13T06:55:17.149Z,134.27
2019-01-13T06:57:45.712Z,138.40
2019-01-13T07:00:22.350Z,137.63
2019-01-13T07:02:50.853Z,140.93
2019-01-13T07:05:19.420Z,137.53
2019-01-13T07:07:48.097Z,144.83
2019-01-13T07:10:16.667Z,138.53
2019-01-13T07:12:45.331Z,238.40
2019-01-13T07:15:18.466Z,133.27
2019-01-13T07:17:46.957Z,134.40
2019-01-13T07:20:17.236Z,128.77
2019-01-13T07:22:45.562Z,132.50
2019-01-13T07:25:14.126Z,145.20
2019-01-13T07:27:42.709Z,136.57
2019-01-13T07:30:14.288Z,131.43
2019-01-13T07:32:42.936Z,135.97
2019-01-13T07:35:11.589Z,151.07
2019-01-13T07:37:40.196Z,138.63
2019-01-13T07:40:14.381Z,141.83
2019-01-13T07:42:42.679Z,143.57
2019-01-13T07:45:13.524Z,144.27
2019-01-13T07:47:41.900Z,137.83
2019-01-13T07:50:12.918Z,143.27
2019-01-13T07:52:41.493Z,162.00
2019-01-13T07:55:12.769Z,147.50
2019-01-13T07:57:41.460Z,129.93
2019-01-13T08:00:19.634Z,132.47
2019-01-13T08:02:48.336Z,145.87
2019-01-13T08:05:16.961Z,137.27
2019-01-13T08:07:45.221Z,151.03
2019-01-13T08:10:16.575Z,135.50
2019-01-13T08:12:45.143Z,152.67
2019-01-13T08:15:15.180Z,149.33
2019-01-13T08:17:43.716Z,140.07
2019-01-13T08:20:15.438Z,132.63
2019-01-13T08:22:44.077Z,129.80
2019-01-13T08:25:12.617Z,131.57
2019-01-13T08:27:41.259Z,132.37
2019-01-13T08:30:11.210Z,146.97
2019-01-13T08:32:39.823Z,140.47
2019-01-13T08:35:08.393Z,133.77
2019-01-13T08:37:36.960Z,134.03
2019-01-13T08:40:06.891Z,128.63
2019-01-13T08:42:35.159Z,134.60
2019-01-13T08:45:04.801Z,147.87
2019-01-13T08:47:33.423Z,133.67
2019-01-13T08:50:02.058Z,157.70
2019-01-13T08:52:30.625Z,132.40
2019-01-13T08:54:59.310Z,134.83
2019-01-13T08:57:27.642Z,136.50
2019-01-13T08:59:55.963Z,143.43
2019-01-13T09:02:24.652Z,135.93
2019-01-13T09:04:53.290Z,156.03
2019-01-13T09:07:22.343Z,150.60
2019-01-13T09:09:50.638Z,146.73
2019-01-13T09:12:18.899Z,145.73
2019-01-13T09:14:47.537Z,140.07
2019-01-13T09:17:16.210Z,141.93
2019-01-13T09:19:44.546Z,138.93
2019-01-13T09:22:13.057Z,157.60
2019-01-13T09:24:41.588Z,143.97
2019-01-13T09:27:10.177Z,144.07
2019-01-13T09:29:42.437Z,141.87
2019-01-13T09:32:09.001Z,137.93
2019-01-13T09:34:37.263Z,130.17
2019-01-13T09:37:05.907Z,131.53
2019-01-13T09:39:34.593Z,143.47
2019-01-13T09:42:03.190Z,148.40
2019-01-13T09:44:31.845Z,140.57
2019-01-13T09:47:00.531Z,142.70
2019-01-13T09:49:28.782Z,140.77
2019-01-13T09:51:57.363Z,140.37
2019-01-13T09:54:25.955Z,159.07
2019-01-13T09:56:54.595Z,129.40
2019-01-13T09:59:23.094Z,133.47
2019-01-13T10:01:51.771Z,136.83
2019-01-13T10:04:20.035Z,144.43
2019-01-13T10:06:48.687Z,142.47
2019-01-13T10:09:17.368Z,129.53
2019-01-13T10:11:45.954Z,131.53
2019-01-13T10:14:14.576Z,138.27
2019-01-13T10:16:43.257Z,138.00
2019-01-13T10:19:11.588Z,136.70
2019-01-13T10:21:40.092Z,133.33
2019-01-13T10:24:08.706Z,130.40
2019-01-13T10:26:37.285Z,138.00
2019-01-13T10:29:05.792Z,132.87
2019-01-13T10:31:34.470Z,127.90
2019-01-13T10:34:02.980Z,133.23
2019-01-13T10:36:31.545Z,137.67
2019-01-13T10:39:00.151Z,144.27
2019-01-13T10:41:28.662Z,136.83
2019-01-13T10:43:56.915Z,140.33
2019-01-13T10:46:25.534Z,133.87
2019-01-13T10:48:53.789Z,136.97
2019-01-13T10:51:22.298Z,137.03
2019-01-13T10:53:50.937Z,135.53
2019-01-13T10:56:20.505Z,132.53
2019-01-13T10:58:48.815Z,138.83
2019-01-13T11:01:17.394Z,135.67
2019-01-13T11:03:45.731Z,135.50
2019-01-13T11:06:14.405Z,131.67
2019-01-13T11:08:42.746Z,132.40
2019-01-13T11:11:11.234Z,144.07
2019-01-13T11:13:39.768Z,134.93
2019-01-13T11:16:08.335Z,141.43
2019-01-13T11:18:36.908Z,140.33
2019-01-13T11:21:05.557Z,141.20
2019-01-13T11:23:33.815Z,136.73
2019-01-13T11:26:02.382Z,137.67
2019-01-13T11:28:31.095Z,141.67
2019-01-13T11:30:59.734Z,136.83
2019-01-13T11:33:28.388Z,147.83
2019-01-13T11:35:57.082Z,139.03
2019-01-13T11:38:25.674Z,134.57
2019-01-13T11:40:54.163Z,131.47
2019-01-13T11:43:22.468Z,146.13
2019-01-13T11:45:50.725Z,141.13
2019-01-13T11:48:19.052Z,128.47
2019-01-13T11:50:48.171Z,129.93
2019-01-13T11:53:16.774Z,133.50
2019-01-13T11:55:45.362Z,130.90
2019-01-13T11:58:15.794Z,136.17
2019-01-13T12:00:44.176Z,130.30
2019-01-13T12:03:16.763Z,135.67
2019-01-13T12:05:42.612Z,139.50
2019-01-13T12:08:11.248Z,137.20
2019-01-13T12:10:39.520Z,136.87
2019-01-13T12:13:08.135Z,137.73
2019-01-13T12:15:36.473Z,141.53
2019-01-13T12:18:04.817Z,131.53
2019-01-13T12:20:33.477Z,133.13
2019-01-13T12:23:02.129Z,132.00
2019-01-13T12:25:30.381Z,134.07
2019-01-13T12:27:59.076Z,140.37
2019-01-13T12:30:29.605Z,131.47
2019-01-13T12:32:58.546Z,134.83
2019-01-13T12:35:27.224Z,132.97
2019-01-13T12:37:55.858Z,143.53
2019-01-13T12:40:25.225Z,132.33
2019-01-13T12:42:53.604Z,127.30
2019-01-13T12:45:23.235Z,123.63
2019-01-13T12:47:51.575Z,134.23
2019-01-13T12:50:22.058Z,135.40
2019-01-13T12:52:50.390Z,128.90
2019-01-13T12:55:19.046Z,126.17
2019-01-13T12:57:47.726Z,124.13
2019-01-13T13:00:17.758Z,127.43
2019-01-13T13:02:46.509Z,132.10
2019-01-13T13:05:15.265Z,128.97
2019-01-13T13:07:43.536Z,132.70
2019-01-13T13:10:21.792Z,134.40
2019-01-13T13:12:50.369Z,131.43
2019-01-13T13:15:19.036Z,132.27
2019-01-13T13:17:47.610Z,132.20
2019-01-13T13:20:16.659Z,134.33
2019-01-13T13:22:45.434Z,140.13
2019-01-13T13:25:14.055Z,125.47
2019-01-13T13:27:42.296Z,129.63
2019-01-13T13:30:27.337Z,128.10
2019-01-13T13:32:55.604Z,131.50
2019-01-13T13:35:24.611Z,132.50
2019-01-13T13:37:53.315Z,128.30
2019-01-13T13:40:24.523Z,139.20
2019-01-13T13:42:53.011Z,133.27
2019-01-13T13:45:21.627Z,132.93
2019-01-13T13:47:50.194Z,134.93
2019-01-13T13:50:25.835Z,125.00
2019-01-13T13:52:54.103Z,132.37
2019-01-13T13:55:22.848Z,123.53
2019-01-13T13:57:51.557Z,134.03
2019-01-13T14:00:25.390Z,128.53
2019-01-13T14:02:54.008Z,129.30
2019-01-13T14:05:22.570Z,124.43
2019-01-13T14:07:50.917Z,133.80
2019-01-13T14:10:25.243Z,120.07
2019-01-13T14:12:53.828Z,125.57
2019-01-13T14:15:22.386Z,128.00
2019-01-13T14:17:50.690Z,124.43
2019-01-13T14:20:20.243Z,124.30
2019-01-13T14:22:48.879Z,136.03
2019-01-13T14:25:17.555Z,129.10
2019-01-13T14:27:45.883Z,122.60
2019-01-13T14:30:28.228Z,132.50
2019-01-13T14:32:56.986Z,144.73
2019-01-13T14:35:25.556Z,135.47
2019-01-13T14:37:54.246Z,139.20
2019-01-13T14:40:23.300Z,129.40
2019-01-13T14:42:53.435Z,138.53
2019-01-13T14:45:22.695Z,128.57
2019-01-13T14:47:51.037Z,131.53
2019-01-13T14:50:20.477Z,130.50
2019-01-13T14:52:48.934Z,136.40
2019-01-13T14:55:17.502Z,131.97
2019-01-13T14:57:46.147Z,128.27
2019-01-13T15:00:23.761Z,130.03
2019-01-13T15:02:52.413Z,138.13
2019-01-13T15:05:20.979Z,131.57
2019-01-13T15:07:49.658Z,133.57
2019-01-13T15:10:20.207Z,127.00
2019-01-13T15:12:48.480Z,137.07
2019-01-13T15:15:17.169Z,131.80
2019-01-13T15:17:45.811Z,131.63
2019-01-13T15:20:18.941Z,132.03
2019-01-13T15:22:47.651Z,134.77
2019-01-13T15:25:19.041Z,136.33
2019-01-13T15:27:48.055Z,138.87
2019-01-13T15:30:20.938Z,130.97
2019-01-13T15:32:49.591Z,132.20
2019-01-13T15:35:18.179Z,139.10
2019-01-13T15:37:46.793Z,136.97
2019-01-13T15:40:20.242Z,137.43
2019-01-13T15:42:48.578Z,133.80
2019-01-13T15:45:17.133Z,140.93
2019-01-13T15:47:45.697Z,138.53
2019-01-13T15:50:16.349Z,132.23
2019-01-13T15:52:44.891Z,135.67
2019-01-13T15:55:13.527Z,144.07
2019-01-13T15:57:42.169Z,144.20
2019-01-13T16:00:16.989Z,139.03
2019-01-13T16:02:45.618Z,139.30
2019-01-13T16:05:14.266Z,128.73
2019-01-13T16:07:42.647Z,140.93
2019-01-13T16:10:12.534Z,140.20
2019-01-13T16:12:40.778Z,132.43
2019-01-13T16:15:10.054Z,142.70
2019-01-13T16:17:38.709Z,136.30
2019-01-13T16:20:25.033Z,136.10
2019-01-13T16:22:53.691Z,130.57
2019-01-13T16:25:22.352Z,134.37
2019-01-13T16:27:50.982Z,153.53
2019-01-13T16:30:21.837Z,143.40
2019-01-13T16:32:50.094Z,142.17
2019-01-13T16:35:19.036Z,137.77
2019-01-13T16:37:47.368Z,133.07
2019-01-13T16:40:16.748Z,129.23
2019-01-13T16:42:45.362Z,127.23
2019-01-13T16:45:15.535Z,129.93
2019-01-13T16:47:44.174Z,136.33
2019-01-13T16:50:15.086Z,136.60
2019-01-13T16:52:45.434Z,142.70
2019-01-13T16:55:14.005Z,133.80
2019-01-13T16:57:42.621Z,136.93
2019-01-13T17:00:19.869Z,136.57
2019-01-13T17:02:48.605Z,134.83
2019-01-13T17:05:18.423Z,133.20
2019-01-13T17:07:46.928Z,134.97
2019-01-13T17:10:18.207Z,141.83
2019-01-13T17:12:46.864Z,144.67
2019-01-13T17:15:17.331Z,126.93
2019-01-13T17:17:45.953Z,148.37
2019-01-13T17:20:17.096Z,140.90
2019-01-13T17:22:45.627Z,145.70
2019-01-13T17:25:15.554Z,134.47
2019-01-13T17:27:44.195Z,139.53
2019-01-13T17:30:19.307Z,134.53
2019-01-13T17:32:48.644Z,146.07
2019-01-13T17:35:17.288Z,143.63
2019-01-13T17:37:45.918Z,137.80
2019-01-13T17:40:17.939Z,136.97
2019-01-13T17:42:46.183Z,145.07
2019-01-13T17:45:19.147Z,133.83
2019-01-13T17:47:47.894Z,144.47
2019-01-13T17:50:18.532Z,133.23
2019-01-13T17:52:47.253Z,141.40
2019-01-13T17:55:18.360Z,142.37
2019-01-13T17:57:46.698Z,144.60
2019-01-13T18:00:33.390Z,133.10
2019-01-13T18:03:05.147Z,136.60
2019-01-13T18:05:33.803Z,134.70
2019-01-13T18:08:02.180Z,140.07
2019-01-13T18:10:31.406Z,139.27
2019-01-13T18:13:21.349Z,142.87
2019-01-13T18:15:49.877Z,135.23
2019-01-13T18:18:18.058Z,133.63
2019-01-13T18:20:46.742Z,141.90
2019-01-13T18:23:15.381Z,135.37
2019-01-13T18:25:44.035Z,131.13
2019-01-13T18:28:12.721Z,130.87
2019-01-13T18:30:41.011Z,126.73
2019-01-13T18:33:12.951Z,135.33
2019-01-13T18:35:41.640Z,146.37
2019-01-13T18:38:12.285Z,139.43
2019-01-13T18:40:40.594Z,139.73
2019-01-13T18:43:09.275Z,143.57
2019-01-13T18:45:38.262Z,141.50
2019-01-13T18:48:06.904Z,139.53
2019-01-13T18:50:35.586Z,140.73
2019-01-13T18:53:07.714Z,157.87
2019-01-13T18:55:36.290Z,133.27
2019-01-13T18:58:05.937Z,137.93
2019-01-13T19:00:34.573Z,142.47
2019-01-13T19:03:03.154Z,131.27
2019-01-13T19:05:31.887Z,139.27
2019-01-13T19:08:00.200Z,143.10
2019-01-13T19:10:51.618Z,139.80
2019-01-13T19:13:21.503Z,142.50
2019-01-13T19:15:51.382Z,136.73
2019-01-13T19:18:20.092Z,145.17
2019-01-13T19:20:48.655Z,152.10
2019-01-13T19:23:17.279Z,147.70
2019-01-13T19:25:45.906Z,141.50
2019-01-13T19:28:14.194Z,147.30
2019-01-13T19:30:42.533Z,135.70
2019-01-13T19:33:10.931Z,143.40
2019-01-13T19:35:39.504Z,150.83
2019-01-13T19:38:07.762Z,139.07
2019-01-13T19:40:36.480Z,169.37
2019-01-13T19:43:04.815Z,142.83
2019-01-13T19:45:33.180Z,162.60
2019-01-13T19:48:02.237Z,139.60
2019-01-13T19:50:30.515Z,151.10
2019-01-13T19:53:00.475Z,156.33
2019-01-13T19:55:29.410Z,159.93
2019-01-13T19:57:57.743Z,141.10
2019-01-13T20:00:31.466Z,148.50
2019-01-13T20:03:09.233Z,130.30
2019-01-13T20:05:37.872Z,145.67
2019-01-13T20:08:06.594Z,150.30
2019-01-13T20:10:35.225Z,150.03
2019-01-13T20:13:03.885Z,146.17
2019-01-13T20:15:38.220Z,142.40
2019-01-13T20:18:06.529Z,163.27
2019-01-13T20:20:35.116Z,152.27
2019-01-13T20:23:03.446Z,148.17
2019-01-13T20:25:31.847Z,153.93
2019-01-13T20:28:00.497Z,155.60
2019-01-13T20:30:30.032Z,142.70
2019-01-13T20:32:58.725Z,135.47
2019-01-13T20:35:27.381Z,162.23
2019-01-13T20:37:55.952Z,147.37
2019-01-13T20:40:24.320Z,152.30
2019-01-13T20:42:52.654Z,146.07
2019-01-13T20:45:29.759Z,139.87
2019-01-13T20:47:58.090Z,147.47
2019-01-13T20:50:26.735Z,151.03
2019-01-13T20:52:55.065Z,142.10
2019-01-13T20:55:23.714Z,151.67
2019-01-13T20:57:52.389Z,152.17
2019-01-13T21:00:22.886Z,137.20
2019-01-13T21:02:51.652Z,140.07
2019-01-13T21:05:26.658Z,164.80
2019-01-13T21:07:50.370Z,140.83
2019-01-13T21:10:19.517Z,137.90
2019-01-13T21:12:48.101Z,156.63
2019-01-13T21:15:31.939Z,154.53
2019-01-13T21:18:00.579Z,156.60
2019-01-13T21:20:29.095Z,136.87
2019-01-13T21:22:58.463Z,143.33
2019-01-13T21:25:28.078Z,141.87
2019-01-13T21:27:58.628Z,141.77
2019-01-13T21:30:31.941Z,135.73
2019-01-13T21:33:00.260Z,139.07
2019-01-13T21:35:33.868Z,139.00
2019-01-13T21:37:58.819Z,140.60
2019-01-13T21:40:27.139Z,139.73
2019-01-13T21:42:55.783Z,135.47
2019-01-13T21:45:25.072Z,154.80
2019-01-13T21:47:53.727Z,141.70
2019-01-13T21:50:24.299Z,141.40
2019-01-13T21:52:53.025Z,133.83
2019-01-13T21:55:21.755Z,150.07
2019-01-13T21:57:50.333Z,133.40
2019-01-13T22:00:24.441Z,132.17
2019-01-13T22:02:53.076Z,133.00
2019-01-13T22:05:28.534Z,174.47
2019-01-13T22:07:56.524Z,138.17
2019-01-13T22:10:24.863Z,132.17
2019-01-13T22:12:54.112Z,134.50
2019-01-13T22:15:22.408Z,133.93
2019-01-13T22:17:52.319Z,144.27
2019-01-13T22:20:22.776Z,132.33
2019-01-13T22:22:52.184Z,150.47
2019-01-13T22:25:20.778Z,144.47
2019-01-13T22:27:49.038Z,153.70
2019-01-13T22:30:22.497Z,134.40
2019-01-13T22:32:51.713Z,144.37
2019-01-13T22:35:20.358Z,134.23
2019-01-13T22:37:55.693Z,140.67
2019-01-13T22:40:19.698Z,150.03
2019-01-13T22:42:48.349Z,142.60
2019-01-13T22:45:19.070Z,136.93
2019-01-13T22:47:47.711Z,141.23
2019-01-13T22:50:18.424Z,144.77
2019-01-13T22:52:47.101Z,138.00
2019-01-13T22:55:15.435Z,145.07
2019-01-13T22:57:44.023Z,139.37
2019-01-13T23:00:38.631Z,147.60
2019-01-13T23:03:07.271Z,139.50
2019-01-13T23:05:35.526Z,140.80
2019-01-13T23:08:04.142Z,150.73
2019-01-13T23:10:32.754Z,154.73
2019-01-13T23:13:01.767Z,141.50
2019-01-13T23:15:30.488Z,140.67
2019-01-13T23:17:59.135Z,135.27
2019-01-13T23:20:27.787Z,142.30
2019-01-13T23:22:56.471Z,146.27
2019-01-13T23:25:25.044Z,145.60
2019-01-13T23:27:53.703Z,150.20
2019-01-13T23:30:22.318Z,150.10
2019-01-13T23:32:50.579Z,141.33
2019-01-13T23:35:19.155Z,135.90
2019-01-13T23:37:47.850Z,137.00
2019-01-13T23:40:16.419Z,139.87
2019-01-13T23:42:44.975Z,140.23
2019-01-13T23:45:13.681Z,149.77
2019-01-13T23:47:42.003Z,146.43
2019-01-13T23:50:11.039Z,140.40
2019-01-13T23:52:39.670Z,145.33
2019-01-13T23:55:08.240Z,137.23
2019-01-13T23:57:36.882Z,136.70
